Wiggins, Texas
Current Conditions -  °F | °C
As of 8:15 AM on Thursday 18 Dec 2014 (Local Time) from KASL Reporting Station
Overcast Overcast  
Wind Chill: 43°   Ceiling: 300
Heat Index: 46°   Visibility: 5mi
Dew Point: 44°   Wind: 5mph
Humidity: 93%   Direction: 80°E
Pressure: 30.19"   Gusts: NA
Location:  32.9556°N, 94.1461°W
Report Text: KASL 181415Z AUTO 08004KT 5SM OVC003 08/07 A3019 RMK AO1 T00760065
Loading
Personal Weather Stations






























Interactive Weather Map New forecast layout! Learn more

10-Day Weather Forecast

Advertisements
Track Severe Weather on mobile